TimePST,TemperatureF,Dew PointF,Humidity,Sea Level PressureIn,VisibilityMPH,Wind Direction,Wind SpeedMPH,Gust SpeedMPH,PrecipitationIn,Events,Conditions,WindDirDegrees,DateUTC
12:53 AM,41.0,37.0,86,30.28,10.0,Calm,Calm,-,N/A,,Overcast,0,2012-11-04 07:53:00
1:53 AM,41.0,37.0,86,30.28,10.0,Calm,Calm,-,N/A,,Overcast,0,2012-11-04 08:53:00
1:53 AM,41.0,37.9,89,30.30,10.0,Calm,Calm,-,N/A,,Overcast,0,2012-11-04 09:53:00
2:53 AM,37.9,36.0,93,30.30,10.0,NNW,3.5,-,N/A,,Overcast,340,2012-11-04 10:53:00
3:53 AM,36.0,35.1,97,30.32,10.0,Calm,Calm,-,N/A,,Clear,0,2012-11-04 11:53:00
4:53 AM,34.0,32.0,92,30.33,10.0,South,4.6,-,N/A,,Clear,190,2012-11-04 12:53:00
5:49 AM,30.2,30.2,100,30.31,2.5,Calm,Calm,-,N/A,,Partly Cloudy,0,2012-11-04 13:49:00
5:53 AM,30.9,30.0,96,30.36,3.0,Calm,Calm,-,N/A,,Partly Cloudy,0,2012-11-04 13:53:00
6:53 AM,32.0,30.9,96,30.39,10.0,Calm,Calm,-,N/A,,Scattered Clouds,0,2012-11-04 14:53:00
7:53 AM,37.9,35.1,89,30.41,10.0,Calm,Calm,-,N/A,,Clear,0,2012-11-04 15:53:00
8:53 AM,45.0,39.0,80,30.43,10.0,Calm,Calm,-,N/A,,Mostly Cloudy,0,2012-11-04 16:53:00
9:53 AM,53.1,39.0,59,30.43,10.0,Calm,Calm,-,N/A,,Overcast,0,2012-11-04 17:53:00
10:53 AM,55.9,39.0,53,30.41,10.0,Calm,Calm,-,N/A,,Overcast,0,2012-11-04 18:53:00
11:53 AM,59.0,39.9,49,30.38,10.0,Variable,4.6,-,N/A,,Overcast,0,2012-11-04 19:53:00
12:53 PM,60.1,39.9,47,30.37,10.0,NNE,10.4,-,N/A,,Overcast,30,2012-11-04 20:53:00
1:53 PM,63.0,41.0,45,30.35,10.0,NE,10.4,-,N/A,,Mostly Cloudy,50,2012-11-04 21:53:00
2:53 PM,61.0,41.0,48,30.37,10.0,NE,8.1,-,N/A,,Overcast,40,2012-11-04 22:53:00
3:53 PM,62.1,39.9,44,30.38,10.0,NE,8.1,-,N/A,,Overcast,50,2012-11-04 23:53:00
4:53 PM,55.9,41.0,57,30.41,10.0,ENE,4.6,-,N/A,,Overcast,60,2012-11-05 00:53:00
5:53 PM,51.1,42.1,71,30.44,10.0,WSW,3.5,-,N/A,,Mostly Cloudy,250,2012-11-05 01:53:00
6:53 PM,46.0,39.9,79,30.46,10.0,Calm,Calm,-,N/A,,Clear,0,2012-11-05 02:53:00
7:53 PM,39.9,37.0,89,30.45,10.0,SE,3.5,-,N/A,,Clear,130,2012-11-05 03:53:00
8:53 PM,39.0,36.0,89,30.43,10.0,North,4.6,-,N/A,,Clear,360,2012-11-05 04:53:00
9:53 PM,37.9,36.0,93,30.42,10.0,Calm,Calm,-,N/A,,Clear,0,2012-11-05 05:53:00
10:53 PM,35.1,34.0,96,30.43,10.0,SSE,5.8,-,N/A,,Clear,150,2012-11-05 06:53:00